Time;durP1;ratioP1;P1;durP2;ratioP2;P2;SDS_P1;SDS_P2;PMS_P1;PMS_P2;Temp;Humidity;BMP_temperature;BMP_pressure;BME280_temperature;BME280_humidity;BME280_pressure;Samples;Min_cycle;Max_cycle;Signal;HPM_P1;HPM_P2
2022/08/01 00:00:11;;;;;;;2.80;2.47;;;24.70;50.90;;;;;;7388039;19;20445;-47
2022/08/01 00:02:43;;;;;;;2.90;2.70;;;24.80;50.70;;;;;;7390117;19;20929;-48
2022/08/01 00:05:15;;;;;;;2.47;2.00;;;24.80;51.40;;;;;;7389370;19;20387;-47
2022/08/01 00:07:45;;;;;;;2.77;2.20;;;24.80;51.00;;;;;;7389548;19;20782;-47
2022/08/01 00:10:16;;;;;;;2.70;2.17;;;24.70;51.00;;;;;;7391176;19;20408;-46
2022/08/01 00:12:48;;;;;;;2.97;2.13;;;24.70;51.20;;;;;;7390282;19;20372;-46
2022/08/01 00:15:19;;;;;;;2.40;2.20;;;24.70;51.40;;;;;;7390695;19;20909;-46
2022/08/01 00:17:49;;;;;;;2.70;2.40;;;24.70;51.40;;;;;;7386639;19;20369;-46
2022/08/01 00:20:18;;;;;;;4.30;2.43;;;24.70;51.20;;;;;;7390142;19;20909;-46
2022/08/01 00:22:48;;;;;;;2.10;1.90;;;24.60;51.20;;;;;;7387407;19;20368;-46
2022/08/01 00:25:17;;;;;;;2.00;1.80;;;24.60;51.60;;;;;;7390568;19;20912;-46
2022/08/01 00:27:49;;;;;;;2.97;2.57;;;24.60;51.40;;;;;;7387146;19;20368;-46
2022/08/01 00:30:18;;;;;;;2.23;2.03;;;24.50;51.50;;;;;;7390646;19;20400;-46
2022/08/01 00:32:48;;;;;;;3.73;2.03;;;24.50;51.60;;;;;;7388533;19;20388;-46
2022/08/01 00:35:17;;;;;;;3.73;2.20;;;24.50;51.70;;;;;;7390334;19;20777;-45
2022/08/01 00:37:47;;;;;;;3.93;2.50;;;24.50;52.00;;;;;;7386021;19;20381;-46
2022/08/01 00:40:16;;;;;;;3.10;2.30;;;24.50;52.30;;;;;;7387835;19;20391;-47
2022/08/01 00:42:48;;;;;;;2.10;1.87;;;24.50;52.30;;;;;;7389997;19;20913;-47
2022/08/01 00:45:18;;;;;;;2.70;2.43;;;24.40;52.60;;;;;;7390209;19;20726;-47
2022/08/01 00:47:47;;;;;;;2.23;1.73;;;24.40;52.40;;;;;;7388876;19;20381;-47
2022/08/01 00:50:17;;;;;;;2.50;2.30;;;24.40;52.60;;;;;;7388377;19;20372;-48
2022/08/01 00:52:47;;;;;;;3.20;2.10;;;24.20;52.40;;;;;;7387645;19;20380;-47
2022/08/01 00:55:20;;;;;;;3.33;2.60;;;24.20;52.80;;;;;;7389397;19;20752;-48
2022/08/01 00:57:53;;;;;;;2.80;2.50;;;24.10;53.10;;;;;;7387093;19;20909;-47
2022/08/01 01:00:23;;;;;;;2.80;2.10;;;24.20;53.10;;;;;;7386262;19;20440;-47
2022/08/01 01:02:53;;;;;;;2.40;2.20;;;24.10;53.10;;;;;;7388276;19;20406;-47
2022/08/01 01:05:22;;;;;;;2.33;2.13;;;24.10;53.00;;;;;;7385321;19;20409;-47
2022/08/01 01:08:01;;;;;;;2.73;2.40;;;24.10;53.40;;;;;;7385188;19;20379;-48
2022/08/01 01:10:35;;;;;;;3.00;2.37;;;24.10;53.30;;;;;;7387140;19;20387;-47
2022/08/01 01:13:10;;;;;;;2.90;2.23;;;24.10;53.60;;;;;;7386561;19;20373;-48
2022/08/01 01:15:46;;;;;;;7.87;2.70;;;24.00;53.60;;;;;;7388012;19;20372;-47
2022/08/01 01:18:22;;;;;;;3.00;2.70;;;24.10;53.70;;;;;;7383682;19;20372;-47
2022/08/01 01:21:05;;;;;;;2.50;2.20;;;24.00;53.80;;;;;;7386996;19;20382;-47
2022/08/01 01:23:48;;;;;;;2.80;2.23;;;24.00;54.10;;;;;;7386372;19;20383;-47
2022/08/01 01:26:31;;;;;;;2.73;2.17;;;24.00;53.90;;;;;;7386007;19;20375;-47
2022/08/01 01:29:10;;;;;;;4.53;3.07;;;24.10;54.20;;;;;;7385948;19;20380;-47
2022/08/01 01:31:46;;;;;;;2.77;2.57;;;24.00;54.20;;;;;;7387669;19;20705;-48
2022/08/01 01:34:19;;;;;;;4.40;2.57;;;23.90;54.40;;;;;;7386447;19;20364;-47
2022/08/01 01:36:50;;;;;;;4.10;2.27;;;23.80;54.70;;;;;;7385681;19;20409;-47
2022/08/01 01:39:22;;;;;;;3.43;2.60;;;23.80;54.90;;;;;;7388089;19;20372;-47
2022/08/01 01:41:53;;;;;;;2.63;2.43;;;23.90;54.80;;;;;;7386086;19;20376;-47
2022/08/01 01:44:25;;;;;;;4.07;2.40;;;23.80;54.90;;;;;;7385321;19;20380;-47
2022/08/01 01:46:55;;;;;;;3.47;3.17;;;23.80;55.20;;;;;;7385820;19;20387;-47
2022/08/01 01:49:29;;;;;;;3.33;2.83;;;23.70;55.20;;;;;;7385908;19;20772;-46
2022/08/01 01:52:00;;;;;;;5.60;2.87;;;23.70;55.30;;;;;;7387259;19;20375;-46
2022/08/01 01:54:34;;;;;;;3.00;2.80;;;23.70;55.60;;;;;;7383266;19;20550;-46
2022/08/01 01:57:05;;;;;;;4.57;2.70;;;23.70;55.50;;;;;;7385119;19;20436;-46
2022/08/01 01:59:41;;;;;;;2.60;2.40;;;23.70;55.80;;;;;;7386201;19;20380;-46
2022/08/01 02:02:11;;;;;;;2.77;2.50;;;23.70;55.70;;;;;;7385726;19;20471;-46
2022/08/01 02:04:45;;;;;;;2.60;2.37;;;23.80;55.80;;;;;;7384480;19;20420;-46
2022/08/01 02:07:17;;;;;;;3.27;2.80;;;23.80;55.90;;;;;;7383362;19;20710;-46
2022/08/01 02:09:49;;;;;;;3.63;2.50;;;23.80;55.80;;;;;;7385642;19;20384;-46
2022/08/01 02:12:23;;;;;;;2.70;2.47;;;23.80;56.10;;;;;;7383969;19;20383;-46
2022/08/01 02:14:59;;;;;;;2.47;2.27;;;23.70;56.70;;;;;;7385171;19;20421;-46
2022/08/01 02:17:30;;;;;;;3.47;2.40;;;23.70;57.40;;;;;;7384980;19;20403;-46
2022/08/01 02:20:02;;;;;;;3.03;2.70;;;23.60;57.10;;;;;;7383114;19;20369;-46
2022/08/01 02:22:35;;;;;;;2.80;2.50;;;23.60;57.40;;;;;;7385938;19;20470;-46
2022/08/01 02:25:13;;;;;;;3.20;2.90;;;23.50;57.50;;;;;;7384438;19;20455;-46
2022/08/01 02:27:46;;;;;;;2.47;2.27;;;23.50;57.80;;;;;;7384689;19;20412;-46
2022/08/01 02:30:19;;;;;;;3.53;2.97;;;23.50;57.90;;;;;;7384690;19;20379;-46
2022/08/01 02:32:54;;;;;;;4.60;2.27;;;23.50;58.00;;;;;;7382868;19;20375;-47
2022/08/01 02:35:27;;;;;;;3.27;2.80;;;23.50;57.70;;;;;;7382696;19;20458;-46
2022/08/01 02:37:59;;;;;;;3.30;3.00;;;23.40;58.20;;;;;;7382045;19;20384;-46
2022/08/01 02:40:30;;;;;;;4.53;2.67;;;23.30;57.80;;;;;;7386152;19;20379;-46
2022/08/01 02:43:03;;;;;;;3.33;2.50;;;23.30;58.70;;;;;;7383811;19;20919;-46
2022/08/01 02:45:38;;;;;;;4.20;2.73;;;23.20;58.90;;;;;;7385032;19;20388;-46
2022/08/01 02:48:14;;;;;;;4.30;2.70;;;23.20;59.00;;;;;;7382889;19;20959;-46
2022/08/01 02:50:51;;;;;;;2.50;2.20;;;23.30;58.90;;;;;;7384961;19;20380;-46
2022/08/01 02:53:24;;;;;;;2.87;2.60;;;23.20;59.00;;;;;;7385039;19;20408;-46
2022/08/01 02:55:55;;;;;;;3.60;2.63;;;23.20;59.20;;;;;;7384985;19;20392;-46
2022/08/01 02:58:24;;;;;;;3.10;2.80;;;23.10;59.30;;;;;;7382444;19;20376;-46
2022/08/01 03:00:58;;;;;;;3.00;2.70;;;23.10;59.60;;;;;;7383102;19;20992;-46
2022/08/01 03:03:28;;;;;;;3.37;2.90;;;23.00;60.00;;;;;;7382144;19;20432;-46
2022/08/01 03:05:58;;;;;;;3.70;2.40;;;22.90;59.90;;;;;;7383843;19;20935;-46
2022/08/01 03:08:29;;;;;;;2.70;2.50;;;22.80;60.40;;;;;;7383698;19;20384;-46
2022/08/01 03:11:00;;;;;;;2.50;2.30;;;22.80;60.80;;;;;;7382658;19;20387;-46
2022/08/01 03:13:34;;;;;;;2.90;2.67;;;22.90;60.70;;;;;;7382498;19;21319;-46
2022/08/01 03:16:09;;;;;;;2.70;2.50;;;22.90;60.50;;;;;;7384409;19;20415;-46
2022/08/01 03:18:39;;;;;;;3.57;2.53;;;22.90;60.80;;;;;;7383420;19;21001;-47
2022/08/01 03:21:10;;;;;;;2.30;2.10;;;23.00;60.80;;;;;;7385464;19;20444;-47
2022/08/01 03:23:42;;;;;;;2.53;2.33;;;22.90;60.70;;;;;;7383324;19;20746;-47
2022/08/01 03:26:13;;;;;;;4.10;3.00;;;23.00;60.80;;;;;;7383291;19;20372;-47
2022/08/01 03:28:48;;;;;;;3.63;2.37;;;22.90;60.90;;;;;;7391484;19;20722;-47
2022/08/01 03:31:22;;;;;;;2.80;2.60;;;22.90;62.00;;;;;;7392523;19;20368;-47
2022/08/01 03:33:52;;;;;;;3.23;2.43;;;22.70;63.10;;;;;;7391820;19;20384;-47
2022/08/01 03:36:27;;;;;;;3.00;2.80;;;22.60;63.70;;;;;;7389912;19;20412;-47
2022/08/01 03:39:02;;;;;;;3.00;2.70;;;22.60;64.10;;;;;;7387900;19;20705;-47
2022/08/01 03:41:51;;;;;;;2.97;2.43;;;22.50;64.40;;;;;;7390914;19;20375;-47
2022/08/01 03:44:27;;;;;;;5.43;3.10;;;22.50;64.90;;;;;;7391818;19;20944;-47
2022/08/01 03:47:03;;;;;;;3.77;2.87;;;22.50;65.20;;;;;;7391761;19;20384;-47
2022/08/01 03:49:35;;;;;;;3.20;2.90;;;22.60;65.00;;;;;;7389814;19;20777;-46
2022/08/01 03:52:06;;;;;;;4.33;2.13;;;22.60;64.80;;;;;;7390585;19;21058;-46
2022/08/01 03:54:39;;;;;;;3.57;2.50;;;22.50;65.20;;;;;;7392499;19;20367;-46
2022/08/01 03:57:10;;;;;;;2.70;2.27;;;22.50;65.30;;;;;;7388735;19;20377;-46
2022/08/01 03:59:40;;;;;;;4.00;2.50;;;22.60;65.40;;;;;;7391324;19;20687;-46
2022/08/01 04:02:14;;;;;;;2.93;2.57;;;22.60;65.10;;;;;;7388477;19;20740;-46
2022/08/01 04:04:47;;;;;;;4.43;2.40;;;22.70;65.40;;;;;;7390658;19;20383;-46
2022/08/01 04:07:27;;;;;;;4.10;2.70;;;22.70;65.50;;;;;;7389164;19;20377;-46
2022/08/01 04:09:57;;;;;;;2.20;2.00;;;22.70;65.60;;;;;;7389437;19;20411;-46
2022/08/01 04:12:26;;;;;;;2.70;2.50;;;22.80;65.60;;;;;;7389365;19;20395;-46
2022/08/01 04:14:56;;;;;;;6.23;5.40;;;22.90;65.20;;;;;;7391146;19;20455;-46
2022/08/01 04:17:28;;;;;;;5.17;4.50;;;22.80;65.40;;;;;;7387731;19;20380;-46
2022/08/01 04:19:58;;;;;;;8.30;2.60;;;22.80;65.10;;;;;;7388768;19;20388;-46
2022/08/01 04:22:27;;;;;;;2.50;2.30;;;22.90;64.80;;;;;;7390418;19;20444;-46
2022/08/01 04:25:00;;;;;;;3.43;2.40;;;22.90;65.10;;;;;;7388877;19;20837;-46
2022/08/01 04:27:33;;;;;;;3.20;2.60;;;22.90;65.80;;;;;;7390288;19;20376;-46
2022/08/01 04:30:04;;;;;;;2.70;2.30;;;22.80;65.60;;;;;;7389663;19;20409;-46
2022/08/01 04:32:40;;;;;;;2.83;2.63;;;22.80;65.90;;;;;;7388176;19;20369;-46
2022/08/01 04:35:16;;;;;;;4.83;3.10;;;22.90;66.00;;;;;;7389651;19;20391;-46
2022/08/01 04:37:48;;;;;;;5.73;3.27;;;22.90;66.20;;;;;;7385997;19;20906;-46
2022/08/01 04:40:18;;;;;;;3.87;3.57;;;22.90;67.10;;;;;;7385664;19;20379;-46
2022/08/01 04:42:48;;;;;;;2.83;2.57;;;22.80;66.30;;;;;;7388337;19;20742;-46
2022/08/01 04:45:18;;;;;;;8.30;6.97;;;22.90;66.30;;;;;;7387734;19;20414;-46
2022/08/01 04:47:51;;;;;;;7.60;6.10;;;23.00;66.40;;;;;;7390083;19;20396;-46
2022/08/01 04:50:21;;;;;;;4.03;3.00;;;23.00;66.00;;;;;;7390067;19;20391;-47
2022/08/01 04:52:51;;;;;;;4.17;2.50;;;23.10;65.70;;;;;;7389357;19;20384;-47
2022/08/01 04:55:20;;;;;;;7.80;2.93;;;23.00;65.60;;;;;;7387640;19;20376;-47
2022/08/01 04:57:52;;;;;;;2.77;2.37;;;23.00;66.20;;;;;;7388601;19;20403;-47
2022/08/01 05:00:22;;;;;;;2.23;2.03;;;22.90;66.70;;;;;;7387627;19;20435;-47
2022/08/01 05:02:54;;;;;;;2.87;2.63;;;22.80;67.90;;;;;;7387073;19;20436;-47
2022/08/01 05:05:26;;;;;;;2.23;1.90;;;22.70;68.30;;;;;;7386569;19;20468;-47
2022/08/01 05:07:55;;;;;;;3.63;2.47;;;22.80;68.10;;;;;;7388414;19;20375;-47
2022/08/01 05:10:25;;;;;;;2.67;2.00;;;22.90;68.70;;;;;;7388512;19;20367;-47
2022/08/01 05:12:55;;;;;;;3.17;2.20;;;22.80;69.50;;;;;;7388796;19;20478;-47
2022/08/01 05:15:25;;;;;;;1.97;1.87;;;22.80;70.10;;;;;;7387104;19;20391;-47
2022/08/01 05:17:57;;;;;;;2.30;2.13;;;22.80;70.40;;;;;;7388449;19;20380;-47
2022/08/01 05:20:26;;;;;;;3.77;2.40;;;22.90;70.60;;;;;;7386368;19;20381;-46
2022/08/01 05:22:57;;;;;;;2.27;2.07;;;23.00;70.50;;;;;;7386379;19;20380;-46
2022/08/01 05:25:26;;;;;;;2.30;2.10;;;23.10;70.40;;;;;;7387688;19;20372;-46
2022/08/01 05:27:56;;;;;;;4.87;2.10;;;23.10;70.20;;;;;;7387221;19;20391;-46
2022/08/01 05:30:25;;;;;;;2.50;2.17;;;23.30;69.00;;;;;;7387058;19;20395;-46
2022/08/01 05:32:57;;;;;;;2.53;2.33;;;23.40;68.50;;;;;;7387583;19;20500;-46
2022/08/01 05:35:27;;;;;;;2.27;2.07;;;23.50;68.10;;;;;;7386704;19;20384;-46
2022/08/01 05:37:56;;;;;;;2.70;2.13;;;23.50;67.70;;;;;;7385644;19;20395;-46
2022/08/01 05:40:26;;;;;;;2.50;2.13;;;23.40;68.60;;;;;;7387773;19;20463;-46
2022/08/01 05:42:55;;;;;;;4.07;2.30;;;23.40;68.40;;;;;;7385648;19;20420;-46
2022/08/01 05:45:24;;;;;;;2.30;2.10;;;23.50;68.50;;;;;;7387600;19;20416;-46
2022/08/01 05:47:56;;;;;;;2.27;1.93;;;23.60;68.10;;;;;;7386209;19;20396;-46
2022/08/01 05:50:26;;;;;;;2.20;2.00;;;23.60;68.50;;;;;;7385345;19;20928;-46
2022/08/01 05:52:55;;;;;;;4.10;1.80;;;23.70;68.20;;;;;;7385738;19;20380;-46
2022/08/01 05:55:25;;;;;;;4.00;2.33;;;23.80;68.10;;;;;;7387713;19;20372;-46
2022/08/01 05:57:54;;;;;;;2.60;2.10;;;23.90;68.20;;;;;;7386508;19;20428;-46
2022/08/01 06:00:24;;;;;;;4.70;1.57;;;24.00;67.50;;;;;;7387079;19;20440;-46
2022/08/01 06:02:53;;;;;;;2.27;1.80;;;24.10;67.30;;;;;;7385504;19;20380;-46
2022/08/01 06:05:26;;;;;;;2.70;2.00;;;24.20;67.10;;;;;;7384895;19;20396;-46
2022/08/01 06:07:55;;;;;;;3.50;1.63;;;24.30;66.60;;;;;;7385674;19;20923;-46
2022/08/01 06:10:25;;;;;;;2.80;2.10;;;24.50;66.00;;;;;;7383603;19;20444;-47
2022/08/01 06:12:54;;;;;;;2.53;1.70;;;24.50;65.60;;;;;;7385011;19;20376;-46
2022/08/01 06:15:24;;;;;;;3.93;2.10;;;24.60;65.50;;;;;;7384216;19;20375;-47
2022/08/01 06:17:53;;;;;;;2.73;2.20;;;24.70;65.10;;;;;;7386273;19;20372;-46
2022/08/01 06:20:28;;;;;;;1.53;1.43;;;24.90;64.40;;;;;;7384050;19;20394;-46
2022/08/01 06:22:57;;;;;;;2.80;1.93;;;25.10;64.10;;;;;;7386930;19;20376;-46
2022/08/01 06:25:27;;;;;;;2.30;1.53;;;25.20;63.70;;;;;;7384239;19;20380;-46
2022/08/01 06:27:57;;;;;;;2.07;1.40;;;25.30;63.20;;;;;;7384166;19;20924;-46
2022/08/01 06:30:26;;;;;;;3.03;1.70;;;25.40;63.30;;;;;;7385194;19;20754;-46
2022/08/01 06:32:58;;;;;;;1.70;1.50;;;25.40;63.00;;;;;;7384387;19;20380;-46
2022/08/01 06:35:30;;;;;;;3.17;1.70;;;25.50;62.60;;;;;;7384871;19;20416;-46
2022/08/01 06:38:04;;;;;;;1.67;1.50;;;25.60;62.20;;;;;;7383703;19;20384;-46
2022/08/01 06:40:34;;;;;;;2.50;1.40;;;25.70;61.80;;;;;;7386302;19;20651;-46
2022/08/01 06:43:03;;;;;;;1.30;1.20;;;25.80;61.60;;;;;;7386471;19;20424;-46
2022/08/01 06:45:33;;;;;;;2.30;1.37;;;25.90;61.10;;;;;;7384429;19;20382;-46
2022/08/01 06:48:02;;;;;;;2.07;1.63;;;25.90;60.90;;;;;;7383777;19;20387;-46
2022/08/01 06:50:35;;;;;;;1.40;1.10;;;25.90;60.60;;;;;;7383674;19;20384;-46
2022/08/01 06:53:05;;;;;;;1.90;1.43;;;26.10;60.50;;;;;;7385845;19;20424;-46
2022/08/01 06:55:34;;;;;;;1.60;1.50;;;26.20;60.00;;;;;;7385692;19;20384;-46
2022/08/01 06:58:04;;;;;;;2.83;1.40;;;26.20;60.50;;;;;;7384529;19;20396;-46
2022/08/01 07:00:36;;;;;;;1.47;1.17;;;26.40;59.60;;;;;;7384948;19;20432;-46
2022/08/01 07:03:05;;;;;;;3.07;1.77;;;26.50;59.00;;;;;;7387011;19;20403;-46
2022/08/01 07:05:37;;;;;;;2.73;1.90;;;26.70;58.40;;;;;;7392235;19;20405;-47
2022/08/01 07:08:07;;;;;;;1.67;1.57;;;26.80;58.20;;;;;;7392567;19;20688;-46
2022/08/01 07:10:37;;;;;;;1.87;1.47;;;26.90;57.60;;;;;;7391984;19;20375;-46
2022/08/01 07:13:06;;;;;;;1.80;1.50;;;27.00;57.70;;;;;;7391877;19;20369;-46
2022/08/01 07:15:36;;;;;;;2.70;1.63;;;27.00;57.00;;;;;;7391025;19;20372;-47
2022/08/01 07:18:06;;;;;;;2.17;1.60;;;27.00;57.00;;;;;;7388352;19;20376;-47
2022/08/01 07:20:39;;;;;;;1.50;1.40;;;26.90;57.20;;;;;;7388626;19;20371;-46
2022/08/01 07:23:09;;;;;;;1.53;1.30;;;26.90;57.20;;;;;;7390794;19;20372;-46
2022/08/01 07:25:38;;;;;;;1.90;1.63;;;27.00;57.30;;;;;;7390233;19;20383;-46
2022/08/01 07:28:08;;;;;;;2.00;1.80;;;27.00;57.20;;;;;;7387503;19;20372;-46
2022/08/01 07:30:37;;;;;;;3.20;1.60;;;27.10;57.10;;;;;;7390867;19;20376;-48
2022/08/01 07:33:07;;;;;;;2.93;1.60;;;27.10;56.60;;;;;;7390517;19;20890;-48
2022/08/01 07:35:39;;;;;;;2.17;1.30;;;27.20;56.70;;;;;;7388281;19;20426;-47
2022/08/01 07:38:09;;;;;;;2.50;1.70;;;27.40;56.20;;;;;;7388504;19;20384;-48
2022/08/01 07:40:39;;;;;;;1.43;1.33;;;27.40;55.70;;;;;;7385365;19;20368;-48
2022/08/01 07:43:08;;;;;;;2.50;1.67;;;27.40;55.40;;;;;;7390293;19;20378;-48
2022/08/01 07:45:40;;;;;;;3.53;1.80;;;27.50;55.30;;;;;;7389501;19;20435;-48
2022/08/01 07:48:10;;;;;;;2.77;1.63;;;27.50;55.20;;;;;;7390832;19;20379;-48
2022/08/01 07:50:42;;;;;;;1.60;1.50;;;27.60;55.00;;;;;;7389602;19;20909;-48
2022/08/01 07:53:12;;;;;;;2.53;1.60;;;27.80;54.60;;;;;;7389950;19;20371;-48
2022/08/01 07:55:41;;;;;;;1.90;1.43;;;28.00;54.30;;;;;;7389817;19;20957;-48
2022/08/01 07:58:11;;;;;;;3.60;1.43;;;28.30;54.50;;;;;;7390062;19;20368;-48
2022/08/01 08:00:40;;;;;;;2.70;2.33;;;28.70;53.60;;;;;;7388588;19;20432;-48
2022/08/01 08:03:10;;;;;;;2.27;1.97;;;29.00;52.00;;;;;;7388116;19;20451;-48
2022/08/01 08:05:44;;;;;;;2.37;1.77;;;29.20;51.40;;;;;;7389063;19;20889;-48
2022/08/01 08:08:15;;;;;;;2.20;1.90;;;29.00;51.10;;;;;;7388983;19;20423;-48
2022/08/01 08:10:44;;;;;;;2.40;1.67;;;28.70;51.70;;;;;;7389058;19;20890;-48
2022/08/01 08:13:14;;;;;;;2.13;2.00;;;28.40;52.30;;;;;;7387896;19;20391;-48
2022/08/01 08:15:43;;;;;;;2.90;1.80;;;28.40;53.40;;;;;;7390897;19;20384;-48
2022/08/01 08:18:13;;;;;;;2.67;1.77;;;28.40;52.30;;;;;;7387679;19;20376;-48
2022/08/01 08:20:46;;;;;;;3.77;1.70;;;28.40;52.30;;;;;;7387432;19;20376;-48
2022/08/01 08:25:58;;;;;;;1.67;1.57;;;28.90;51.80;;;;;;7390715;19;20387;-48
2022/08/01 08:28:27;;;;;;;2.27;1.53;;;29.10;51.10;;;;;;7388793;19;20431;-48
2022/08/01 08:30:57;;;;;;;3.03;2.40;;;29.20;51.10;;;;;;7389554;19;20921;-48
2022/08/01 08:33:26;;;;;;;6.37;2.90;;;29.30;50.90;;;;;;7389648;19;20515;-48
2022/08/01 08:35:58;;;;;;;2.77;2.13;;;29.50;50.60;;;;;;7388034;19;20740;-50
2022/08/01 08:38:28;;;;;;;2.07;1.67;;;29.70;49.80;;;;;;7387283;19;20741;-48
2022/08/01 08:40:59;;;;;;;3.67;2.53;;;30.00;49.90;;;;;;7387866;19;20775;-48
2022/08/01 08:43:29;;;;;;;2.30;2.10;;;30.10;49.10;;;;;;7389467;19;20403;-48
2022/08/01 08:45:59;;;;;;;3.23;1.97;;;30.40;49.40;;;;;;7388953;19;20407;-48
2022/08/01 08:48:32;;;;;;;4.40;2.03;;;30.60;48.90;;;;;;7388560;19;20415;-48
2022/08/01 08:51:04;;;;;;;4.73;3.00;;;30.90;47.90;;;;;;7389057;19;20383;-48
2022/08/01 08:53:36;;;;;;;3.20;2.47;;;31.30;47.60;;;;;;7389806;19;20775;-48
2022/08/01 08:56:06;;;;;;;2.13;1.67;;;31.50;46.60;;;;;;7387729;19;20380;-48
2022/08/01 08:58:39;;;;;;;5.00;2.17;;;31.70;46.40;;;;;;7387578;19;20383;-48
2022/08/01 09:01:09;;;;;;;2.30;2.10;;;31.50;46.50;;;;;;7384822;19;20448;-48
2022/08/01 09:03:39;;;;;;;2.40;1.83;;;31.30;46.90;;;;;;7386186;19;20980;-48
2022/08/01 09:06:13;;;;;;;2.80;2.60;;;31.00;47.30;;;;;;7387872;19;20372;-48
2022/08/01 09:08:45;;;;;;;3.13;2.57;;;30.80;47.90;;;;;;7388041;19;20387;-48
2022/08/01 09:11:15;;;;;;;4.23;2.70;;;30.80;48.10;;;;;;7388494;19;20925;-48
2022/08/01 09:13:46;;;;;;;4.40;2.37;;;30.90;47.90;;;;;;7387283;19;20392;-49
2022/08/01 09:16:19;;;;;;;7.00;5.50;;;31.00;47.40;;;;;;7386691;19;20399;-48
2022/08/01 09:18:49;;;;;;;3.50;3.20;;;31.10;46.90;;;;;;7385140;19;20384;-48
2022/08/01 09:21:25;;;;;;;4.83;3.13;;;31.00;47.20;;;;;;7387891;19;20380;-47
2022/08/01 09:23:58;;;;;;;4.97;3.77;;;31.00;47.80;;;;;;7387330;19;20376;-48
2022/08/01 09:26:33;;;;;;;5.10;4.20;;;30.60;47.70;;;;;;7384661;19;20372;-48
2022/08/01 09:29:04;;;;;;;5.53;4.40;;;30.50;48.00;;;;;;7389343;19;20380;-48
2022/08/01 09:31:42;;;;;;;4.90;4.40;;;30.50;48.50;;;;;;7386605;19;20387;-47
2022/08/01 09:34:11;;;;;;;6.30;5.27;;;30.70;47.90;;;;;;7389697;19;20541;-47
2022/08/01 09:36:55;;;;;;;8.40;7.60;;;30.90;47.70;;;;;;7385062;19;20406;-47
2022/08/01 09:39:27;;;;;;;8.63;7.70;;;31.10;47.40;;;;;;7385941;19;20376;-47
2022/08/01 09:41:58;;;;;;;7.30;6.60;;;30.90;48.20;;;;;;7387980;19;20384;-47
2022/08/01 09:44:47;;;;;;;6.80;6.10;;;31.40;46.70;;;;;;7385915;19;20391;-47
2022/08/01 09:47:18;;;;;;;5.00;4.50;;;31.70;46.40;;;;;;7385311;19;20379;-47
2022/08/01 09:49:48;;;;;;;5.83;4.60;;;32.10;45.40;;;;;;7387609;19;20812;-47
2022/08/01 09:52:21;;;;;;;7.00;4.80;;;32.30;45.40;;;;;;7385237;19;20372;-47
2022/08/01 09:54:57;;;;;;;4.87;4.37;;;33.20;43.90;;;;;;7387525;19;20372;-48
2022/08/01 09:57:32;;;;;;;6.80;5.17;;;33.60;42.90;;;;;;7385945;19;20426;-48
2022/08/01 10:00:03;;;;;;;6.53;4.50;;;33.50;42.70;;;;;;7385010;19;20466;-49
2022/08/01 10:02:43;;;;;;;5.73;4.00;;;33.30;43.20;;;;;;7386713;19;20447;-49
2022/08/01 10:05:14;;;;;;;5.90;4.50;;;33.20;43.10;;;;;;7385343;19;20463;-49
2022/08/01 10:08:03;;;;;;;4.93;3.80;;;33.00;43.50;;;;;;7384411;19;20413;-48
2022/08/01 10:10:33;;;;;;;3.73;3.43;;;33.10;44.20;;;;;;7385417;19;20732;-49
2022/08/01 10:13:07;;;;;;;3.63;3.33;;;33.80;43.20;;;;;;7385455;19;20396;-49
2022/08/01 10:15:38;;;;;;;4.13;3.73;;;34.10;41.70;;;;;;7383773;19;20464;-49
2022/08/01 10:18:13;;;;;;;4.67;4.17;;;34.00;41.80;;;;;;7386580;19;20412;-49
2022/08/01 10:20:43;;;;;;;3.90;3.60;;;33.70;42.00;;;;;;7385303;19;20825;-48
2022/08/01 10:23:15;;;;;;;4.93;4.23;;;33.50;42.90;;;;;;7384750;19;20376;-50
2022/08/01 10:25:46;;;;;;;3.97;3.43;;;34.50;41.70;;;;;;7384970;19;20380;-50
2022/08/01 10:28:19;;;;;;;3.63;3.33;;;35.60;39.60;;;;;;7384240;19;20460;-49
2022/08/01 10:30:49;;;;;;;3.67;3.13;;;37.00;37.10;;;;;;7384724;19;20380;-48
2022/08/01 10:33:19;;;;;;;3.17;2.90;;;37.90;36.10;;;;;;7385201;19;20984;-48
2022/08/01 10:35:49;;;;;;;3.60;3.10;;;39.10;34.20;;;;;;7384637;19;20375;-48
2022/08/01 10:38:24;;;;;;;3.03;2.43;;;40.10;32.60;;;;;;7382990;19;20387;-48
2022/08/01 10:40:54;;;;;;;3.30;2.97;;;40.70;31.50;;;;;;7385179;19;20396;-48
2022/08/01 10:43:23;;;;;;;4.23;2.83;;;41.10;30.90;;;;;;7386164;19;20406;-48
2022/08/01 10:45:53;;;;;;;3.30;3.07;;;41.70;30.40;;;;;;7385212;19;20376;-49
2022/08/01 10:48:29;;;;;;;2.67;2.40;;;42.80;29.60;;;;;;7383311;19;20376;-46
2022/08/01 10:51:04;;;;;;;3.10;2.80;;;42.70;29.00;;;;;;7383468;19;20383;-48
2022/08/01 10:53:36;;;;;;;2.87;2.47;;;41.20;30.00;;;;;;7386278;19;20941;-48
2022/08/01 10:56:09;;;;;;;3.50;2.97;;;38.80;32.70;;;;;;7385163;19;21448;-47
2022/08/01 10:58:46;;;;;;;2.70;2.50;;;36.90;35.40;;;;;;7383202;19;20368;-48
2022/08/01 11:01:26;;;;;;;4.57;2.50;;;35.50;37.60;;;;;;7380890;19;20428;-47
2022/08/01 11:04:03;;;;;;;2.90;2.70;;;34.70;38.90;;;;;;7379620;19;20748;-48
2022/08/01 11:06:56;;;;;;;2.90;2.70;;;34.00;39.70;;;;;;7383685;19;20447;-47
2022/08/01 11:09:42;;;;;;;3.70;3.40;;;33.70;40.70;;;;;;7381416;19;20416;-47
2022/08/01 11:12:13;;;;;;;3.40;3.10;;;33.50;41.40;;;;;;7384509;19;21521;-47
2022/08/01 11:15:13;;;;;;;3.20;2.93;;;33.90;41.10;;;;;;7383800;19;20531;-48
2022/08/01 11:17:47;;;;;;;3.60;3.30;;;35.70;37.80;;;;;;7383387;19;20391;-48
2022/08/01 11:20:18;;;;;;;3.00;2.53;;;36.60;36.30;;;;;;7381735;19;21183;-47
2022/08/01 11:23:27;;;;;;;3.10;2.40;;;36.50;35.80;;;;;;7384521;19;20496;-48
2022/08/01 11:26:16;;;;;;;3.37;2.80;;;36.20;36.60;;;;;;7383694;19;20988;-47
2022/08/01 11:28:48;;;;;;;3.50;3.20;;;35.30;38.10;;;;;;7383967;19;20447;-47
2022/08/01 11:31:36;;;;;;;3.43;3.13;;;34.50;39.20;;;;;;7384460;19;20807;-47
2022/08/01 11:34:08;;;;;;;3.37;3.07;;;34.10;39.50;;;;;;7383150;19;20376;-47
2022/08/01 11:36:40;;;;;;;3.50;2.53;;;33.70;40.20;;;;;;7385016;19;20376;-47
2022/08/01 11:39:22;;;;;;;2.30;2.10;;;33.60;40.80;;;;;;7384073;19;20909;-47
2022/08/01 11:41:54;;;;;;;6.17;2.50;;;34.00;40.60;;;;;;7381633;19;20372;-48
2022/08/01 11:44:28;;;;;;;2.70;2.50;;;34.70;39.10;;;;;;7384723;19;20376;-49
2022/08/01 11:47:02;;;;;;;2.67;2.47;;;35.00;38.20;;;;;;7384079;19;20922;-49
2022/08/01 11:49:47;;;;;;;2.97;2.77;;;35.50;37.40;;;;;;7390570;19;20823;-49
2022/08/01 11:52:25;;;;;;;3.93;2.13;;;35.70;36.80;;;;;;7391848;19;20391;-49
2022/08/01 11:54:56;;;;;;;4.67;2.40;;;35.20;37.40;;;;;;7390101;19;20363;-48
2022/08/01 11:57:34;;;;;;;2.90;2.70;;;34.60;39.20;;;;;;7390740;19;20412;-49
2022/08/01 12:00:12;;;;;;;2.20;2.00;;;34.20;39.70;;;;;;7389467;19;20443;-48
2022/08/01 12:02:41;;;;;;;2.57;2.30;;;34.80;39.20;;;;;;7390343;19;20420;-47
2022/08/01 12:05:14;;;;;;;2.83;2.57;;;35.90;36.90;;;;;;7388552;19;20413;-48
2022/08/01 12:07:46;;;;;;;4.83;2.67;;;35.40;37.10;;;;;;7388901;19;20384;-49
2022/08/01 12:10:17;;;;;;;3.80;2.50;;;34.90;38.00;;;;;;7391483;19;20728;-47
2022/08/01 12:12:53;;;;;;;2.80;2.30;;;34.00;39.20;;;;;;7390524;19;20774;-47
2022/08/01 12:15:26;;;;;;;3.47;2.83;;;33.20;40.40;;;;;;7388340;19;20383;-47
2022/08/01 12:18:00;;;;;;;2.70;2.50;;;33.00;41.40;;;;;;7387514;19;20743;-47
2022/08/01 12:20:36;;;;;;;3.27;2.97;;;34.40;40.50;;;;;;7388068;19;20392;-46
2022/08/01 12:23:10;;;;;;;3.40;2.43;;;36.80;36.20;;;;;;7388704;19;20408;-46
2022/08/01 12:25:43;;;;;;;3.80;2.20;;;38.00;33.30;;;;;;7388317;19;20380;-46
2022/08/01 12:28:17;;;;;;;2.57;2.37;;;37.70;33.50;;;;;;7390082;19;20376;-46
2022/08/01 12:30:51;;;;;;;2.27;2.07;;;37.10;34.20;;;;;;7388041;19;20408;-46
2022/08/01 12:33:21;;;;;;;2.50;2.30;;;36.30;35.10;;;;;;7389294;19;20396;-46
2022/08/01 12:35:52;;;;;;;5.70;4.40;;;35.60;36.00;;;;;;7387893;19;20409;-46
2022/08/01 12:38:24;;;;;;;3.47;2.53;;;34.70;37.30;;;;;;7390263;19;20384;-46
2022/08/01 12:40:54;;;;;;;2.37;2.17;;;33.70;39.40;;;;;;7385889;19;20391;-46
2022/08/01 12:43:26;;;;;;;3.20;2.40;;;33.10;41.00;;;;;;7388703;19;20913;-48
2022/08/01 12:45:58;;;;;;;2.50;2.30;;;33.70;41.10;;;;;;7386472;19;20396;-46
2022/08/01 12:48:32;;;;;;;4.97;2.60;;;35.40;38.40;;;;;;7388010;19;20376;-46
2022/08/01 12:51:03;;;;;;;3.10;2.40;;;37.00;35.40;;;;;;7388139;19;20371;-46
2022/08/01 12:53:37;;;;;;;2.47;2.27;;;37.50;34.30;;;;;;7389361;19;20453;-47
2022/08/01 12:56:09;;;;;;;4.63;2.47;;;36.90;34.90;;;;;;7387109;19;20928;-48
2022/08/01 12:58:42;;;;;;;3.57;2.63;;;36.20;35.90;;;;;;7387637;19;20453;-48
2022/08/01 13:01:12;;;;;;;2.70;2.30;;;35.50;37.00;;;;;;7385416;19;20973;-47
2022/08/01 13:04:00;;;;;;;2.80;2.50;;;34.80;38.10;;;;;;7386208;19;20432;-47
2022/08/01 13:06:32;;;;;;;2.67;2.47;;;34.30;38.60;;;;;;7389063;19;20490;-46
2022/08/01 13:09:08;;;;;;;2.50;2.30;;;33.80;39.40;;;;;;7386420;19;20741;-47
2022/08/01 13:11:38;;;;;;;2.93;2.40;;;33.80;39.70;;;;;;7387872;19;20447;-48
2022/08/01 13:14:10;;;;;;;2.60;2.40;;;33.70;40.10;;;;;;7388764;19;20471;-48
2022/08/01 13:16:49;;;;;;;2.17;1.93;;;34.60;38.20;;;;;;7360058;19;20399;-48